Portada
METAR-TAF:

METAR-TAF

Aeroports :

Seül Inchon, Corea del Sud

latitud: 37-28N, longitud: 126-27E, altitud: 7 m

Observació

L'informe es va fer fa 27 minuts, a les 15:30 UTC
Vent 6 kt del Nord-Est
Temperatura 4°C
Humitat 70%
Pressió 1021 hPa
Visibilitat 10 km o més
sense núvols per sota de 1500 mi sense presència de cumulonimbus.

METAR: RKSI 251530Z 05006KT CAVOK 04/M01 Q1021 NOSIG

Hora: 00:57 (15:57 UTC)

Pronòstic

L'informe es va fer fa 4 hores i 57 minuts, a les 11:00 UTC
Pronòstic vàlid del 25 a les 12 UTC al 26 a les 18 UTC
Vent 10 kt del Nord/Nord-Est
Visibilitat 10 km o més
Escasses núvols a una alçada de 3000 ft
Núvols disperses a una alçada de 12000 ft
Evolucionant progressivament
l' 25 a les 23 UTC al 25 a les 24 UTC
Vent 7 kt del Nord-Oest
Temporalment
l' 26 a les 06 UTC al 26 a les 08 UTC
Vent 15 kt del Oest/Nord-Oest amb ràfegues de 25 kt

TAF: RKSI 251100Z 2512/2618 03010KT 9999 FEW030 SCT120 TN02/2520Z TX09/2606Z BECMG 2523/2524 32007KT TEMPO 2606/2608 29015G25KT

Observacions i pronòstics meteorològics de més de 4000 aeroports (METAR i TAF).

Les estacions disponibles són els punts grocs i vermells al mapa.

Posi el ratolí al punt desitjat per veure el nom de l'estació.

Feu clic per veure les observacions i els pronòstics meteorològics.

Per canviar el mapa: feu clic els botons verds amb una creu de color negre per apropar; al botó verd amb un guió per allunyar la imatge; o en les fletxes verdes per a mapes adjacents.


METAR-TAF: